sensor_id;sensor_type;location;lat;lon;timestamp;P1;durP1;ratioP1;P2;durP2;ratioP2
52854;SDS011;38719;51.418;7.286;2022-07-01T00:00:29;12.48;;;8.15;;
52854;SDS011;38719;51.418;7.286;2022-07-01T00:02:58;9.85;;;7.55;;
52854;SDS011;38719;51.418;7.286;2022-07-01T00:05:25;9.48;;;7.57;;
52854;SDS011;38719;51.418;7.286;2022-07-01T00:07:53;12.68;;;8.98;;
52854;SDS011;38719;51.418;7.286;2022-07-01T00:10:21;10.00;;;7.38;;
52854;SDS011;38719;51.418;7.286;2022-07-01T00:12:48;10.52;;;7.25;;
52854;SDS011;38719;51.418;7.286;2022-07-01T00:15:16;10.00;;;7.07;;
52854;SDS011;38719;51.418;7.286;2022-07-01T00:17:43;10.85;;;7.40;;
52854;SDS011;38719;51.418;7.286;2022-07-01T00:20:12;9.23;;;7.05;;
52854;SDS011;38719;51.418;7.286;2022-07-01T00:22:40;8.68;;;6.63;;
52854;SDS011;38719;51.418;7.286;2022-07-01T00:25:08;8.52;;;6.65;;
52854;SDS011;38719;51.418;7.286;2022-07-01T00:27:36;9.88;;;7.40;;
52854;SDS011;38719;51.418;7.286;2022-07-01T00:30:05;10.85;;;6.70;;
52854;SDS011;38719;51.418;7.286;2022-07-01T00:32:34;13.52;;;7.30;;
52854;SDS011;38719;51.418;7.286;2022-07-01T00:35:02;10.65;;;8.10;;
52854;SDS011;38719;51.418;7.286;2022-07-01T00:37:32;16.13;;;9.60;;
52854;SDS011;38719;51.418;7.286;2022-07-01T00:39:59;11.68;;;8.57;;
52854;SDS011;38719;51.418;7.286;2022-07-01T00:42:27;11.73;;;8.32;;
52854;SDS011;38719;51.418;7.286;2022-07-01T00:44:54;12.82;;;9.48;;
52854;SDS011;38719;51.418;7.286;2022-07-01T00:47:22;12.85;;;9.90;;
52854;SDS011;38719;51.418;7.286;2022-07-01T00:49:51;14.35;;;9.73;;
52854;SDS011;38719;51.418;7.286;2022-07-01T00:52:19;15.05;;;10.63;;
52854;SDS011;38719;51.418;7.286;2022-07-01T00:54:53;17.85;;;10.38;;
52854;SDS011;38719;51.418;7.286;2022-07-01T00:57:22;13.43;;;9.27;;
52854;SDS011;38719;51.418;7.286;2022-07-01T00:59:49;14.73;;;10.23;;
52854;SDS011;38719;51.418;7.286;2022-07-01T01:02:17;16.90;;;11.05;;
52854;SDS011;38719;51.418;7.286;2022-07-01T01:04:45;24.52;;;10.25;;
52854;SDS011;38719;51.418;7.286;2022-07-01T01:07:12;19.02;;;11.77;;
52854;SDS011;38719;51.418;7.286;2022-07-01T01:09:41;16.20;;;10.80;;
52854;SDS011;38719;51.418;7.286;2022-07-01T01:12:10;16.35;;;11.13;;
52854;SDS011;38719;51.418;7.286;2022-07-01T01:14:43;16.70;;;11.70;;
52854;SDS011;38719;51.418;7.286;2022-07-01T01:17:11;17.88;;;11.48;;
52854;SDS011;38719;51.418;7.286;2022-07-01T01:19:40;19.35;;;12.52;;
52854;SDS011;38719;51.418;7.286;2022-07-01T01:22:09;18.70;;;12.38;;
52854;SDS011;38719;51.418;7.286;2022-07-01T01:24:38;20.45;;;13.13;;
52854;SDS011;38719;51.418;7.286;2022-07-01T01:27:06;18.80;;;13.02;;
52854;SDS011;38719;51.418;7.286;2022-07-01T01:29:34;17.23;;;12.63;;
52854;SDS011;38719;51.418;7.286;2022-07-01T01:32:04;19.35;;;12.60;;
52854;SDS011;38719;51.418;7.286;2022-07-01T01:34:32;18.67;;;11.40;;
52854;SDS011;38719;51.418;7.286;2022-07-01T01:37:00;15.70;;;10.55;;
52854;SDS011;38719;51.418;7.286;2022-07-01T01:39:29;16.48;;;11.45;;
52854;SDS011;38719;51.418;7.286;2022-07-01T01:41:57;15.25;;;10.57;;
52854;SDS011;38719;51.418;7.286;2022-07-01T01:44:24;14.02;;;10.20;;
52854;SDS011;38719;51.418;7.286;2022-07-01T01:46:52;14.68;;;10.30;;
52854;SDS011;38719;51.418;7.286;2022-07-01T01:49:20;12.68;;;9.65;;
52854;SDS011;38719;51.418;7.286;2022-07-01T01:51:47;12.52;;;9.10;;
52854;SDS011;38719;51.418;7.286;2022-07-01T01:54:15;10.82;;;7.93;;
52854;SDS011;38719;51.418;7.286;2022-07-01T01:56:44;10.30;;;7.47;;
52854;SDS011;38719;51.418;7.286;2022-07-01T01:59:12;10.55;;;7.05;;
52854;SDS011;38719;51.418;7.286;2022-07-01T02:01:39;9.18;;;6.57;;
52854;SDS011;38719;51.418;7.286;2022-07-01T02:04:07;9.70;;;6.65;;
52854;SDS011;38719;51.418;7.286;2022-07-01T02:06:35;7.93;;;6.18;;
52854;SDS011;38719;51.418;7.286;2022-07-01T02:09:03;12.45;;;6.80;;
52854;SDS011;38719;51.418;7.286;2022-07-01T02:11:30;9.70;;;6.97;;
52854;SDS011;38719;51.418;7.286;2022-07-01T02:13:59;10.88;;;7.45;;
52854;SDS011;38719;51.418;7.286;2022-07-01T02:16:27;10.40;;;7.25;;
52854;SDS011;38719;51.418;7.286;2022-07-01T02:18:55;10.07;;;7.00;;
52854;SDS011;38719;51.418;7.286;2022-07-01T02:21:22;10.05;;;7.28;;
52854;SDS011;38719;51.418;7.286;2022-07-01T02:23:50;10.95;;;7.10;;
52854;SDS011;38719;51.418;7.286;2022-07-01T02:26:18;10.85;;;6.85;;
52854;SDS011;38719;51.418;7.286;2022-07-01T02:28:46;7.80;;;6.25;;
52854;SDS011;38719;51.418;7.286;2022-07-01T02:31:15;13.10;;;6.40;;
52854;SDS011;38719;51.418;7.286;2022-07-01T02:33:42;10.70;;;6.50;;
52854;SDS011;38719;51.418;7.286;2022-07-01T02:36:10;9.02;;;5.63;;
52854;SDS011;38719;51.418;7.286;2022-07-01T02:38:38;7.28;;;5.53;;
52854;SDS011;38719;51.418;7.286;2022-07-01T02:41:05;8.55;;;5.43;;
52854;SDS011;38719;51.418;7.286;2022-07-01T02:43:33;7.70;;;5.63;;
52854;SDS011;38719;51.418;7.286;2022-07-01T02:46:00;10.70;;;4.97;;
52854;SDS011;38719;51.418;7.286;2022-07-01T02:48:29;8.07;;;5.30;;
52854;SDS011;38719;51.418;7.286;2022-07-01T02:50:57;9.02;;;4.88;;
52854;SDS011;38719;51.418;7.286;2022-07-01T02:53:25;8.20;;;4.70;;
52854;SDS011;38719;51.418;7.286;2022-07-01T02:55:52;6.28;;;4.53;;
52854;SDS011;38719;51.418;7.286;2022-07-01T02:58:20;7.00;;;4.53;;
52854;SDS011;38719;51.418;7.286;2022-07-01T03:00:48;7.88;;;4.85;;
52854;SDS011;38719;51.418;7.286;2022-07-01T03:03:18;8.30;;;4.72;;
52854;SDS011;38719;51.418;7.286;2022-07-01T03:05:48;9.23;;;5.00;;
52854;SDS011;38719;51.418;7.286;2022-07-01T03:08:15;11.43;;;5.38;;
52854;SDS011;38719;51.418;7.286;2022-07-01T03:10:43;7.55;;;5.03;;
52854;SDS011;38719;51.418;7.286;2022-07-01T03:13:11;10.75;;;5.57;;
52854;SDS011;38719;51.418;7.286;2022-07-01T03:15:38;9.10;;;5.70;;
52854;SDS011;38719;51.418;7.286;2022-07-01T03:18:06;10.15;;;5.40;;
52854;SDS011;38719;51.418;7.286;2022-07-01T03:20:34;11.02;;;5.43;;
52854;SDS011;38719;51.418;7.286;2022-07-01T03:23:03;11.98;;;6.70;;
52854;SDS011;38719;51.418;7.286;2022-07-01T03:25:30;10.75;;;6.30;;
52854;SDS011;38719;51.418;7.286;2022-07-01T03:27:58;11.05;;;6.45;;
52854;SDS011;38719;51.418;7.286;2022-07-01T03:30:29;11.57;;;6.30;;
52854;SDS011;38719;51.418;7.286;2022-07-01T03:32:57;14.40;;;6.45;;
52854;SDS011;38719;51.418;7.286;2022-07-01T03:35:24;10.88;;;6.30;;
52854;SDS011;38719;51.418;7.286;2022-07-01T03:38:07;10.38;;;7.05;;
52854;SDS011;38719;51.418;7.286;2022-07-01T03:40:34;11.00;;;6.78;;
52854;SDS011;38719;51.418;7.286;2022-07-01T03:43:02;12.10;;;6.75;;
52854;SDS011;38719;51.418;7.286;2022-07-01T03:45:31;10.77;;;6.38;;
52854;SDS011;38719;51.418;7.286;2022-07-01T03:47:59;12.35;;;7.00;;
52854;SDS011;38719;51.418;7.286;2022-07-01T03:50:26;10.77;;;6.65;;
52854;SDS011;38719;51.418;7.286;2022-07-01T03:52:54;13.00;;;7.13;;
52854;SDS011;38719;51.418;7.286;2022-07-01T03:55:41;12.57;;;6.95;;
52854;SDS011;38719;51.418;7.286;2022-07-01T03:58:08;12.88;;;6.97;;
52854;SDS011;38719;51.418;7.286;2022-07-01T04:00:37;11.30;;;7.35;;
52854;SDS011;38719;51.418;7.286;2022-07-01T04:03:05;13.70;;;7.85;;
52854;SDS011;38719;51.418;7.286;2022-07-01T04:05:34;9.32;;;6.72;;
52854;SDS011;38719;51.418;7.286;2022-07-01T04:08:03;15.30;;;7.35;;
52854;SDS011;38719;51.418;7.286;2022-07-01T04:10:32;14.27;;;8.20;;
52854;SDS011;38719;51.418;7.286;2022-07-01T04:13:02;15.90;;;8.07;;
52854;SDS011;38719;51.418;7.286;2022-07-01T04:15:50;12.68;;;8.30;;
52854;SDS011;38719;51.418;7.286;2022-07-01T04:18:18;13.77;;;8.10;;
52854;SDS011;38719;51.418;7.286;2022-07-01T04:20:46;12.40;;;8.00;;
52854;SDS011;38719;51.418;7.286;2022-07-01T04:23:34;16.33;;;8.13;;
52854;SDS011;38719;51.418;7.286;2022-07-01T04:26:01;14.80;;;8.23;;
52854;SDS011;38719;51.418;7.286;2022-07-01T04:28:52;11.93;;;8.20;;
52854;SDS011;38719;51.418;7.286;2022-07-01T04:31:21;10.60;;;7.78;;
52854;SDS011;38719;51.418;7.286;2022-07-01T04:33:49;13.15;;;7.80;;
52854;SDS011;38719;51.418;7.286;2022-07-01T04:36:17;12.95;;;7.70;;
52854;SDS011;38719;51.418;7.286;2022-07-01T04:38:45;18.45;;;8.30;;
52854;SDS011;38719;51.418;7.286;2022-07-01T04:41:13;14.25;;;8.27;;
52854;SDS011;38719;51.418;7.286;2022-07-01T04:43:59;16.30;;;8.88;;
52854;SDS011;38719;51.418;7.286;2022-07-01T04:46:27;13.00;;;8.65;;
52854;SDS011;38719;51.418;7.286;2022-07-01T04:48:54;13.85;;;8.15;;
52854;SDS011;38719;51.418;7.286;2022-07-01T04:51:22;12.98;;;8.90;;
52854;SDS011;38719;51.418;7.286;2022-07-01T04:53:50;14.68;;;8.00;;
52854;SDS011;38719;51.418;7.286;2022-07-01T04:56:18;14.23;;;8.35;;
52854;SDS011;38719;51.418;7.286;2022-07-01T04:58:46;17.05;;;8.13;;
52854;SDS011;38719;51.418;7.286;2022-07-01T05:01:15;14.02;;;8.55;;
52854;SDS011;38719;51.418;7.286;2022-07-01T05:03:42;11.15;;;8.07;;
52854;SDS011;38719;51.418;7.286;2022-07-01T05:06:10;9.95;;;7.80;;
52854;SDS011;38719;51.418;7.286;2022-07-01T05:08:38;12.43;;;8.05;;
52854;SDS011;38719;51.418;7.286;2022-07-01T05:11:05;12.82;;;7.85;;
52854;SDS011;38719;51.418;7.286;2022-07-01T05:13:34;13.70;;;7.15;;
52854;SDS011;38719;51.418;7.286;2022-07-01T05:16:02;13.38;;;6.82;;
52854;SDS011;38719;51.418;7.286;2022-07-01T05:18:31;11.55;;;7.57;;
52854;SDS011;38719;51.418;7.286;2022-07-01T05:21:16;11.45;;;6.65;;
52854;SDS011;38719;51.418;7.286;2022-07-01T05:24:02;13.57;;;7.13;;
52854;SDS011;38719;51.418;7.286;2022-07-01T05:26:30;9.60;;;6.68;;
52854;SDS011;38719;51.418;7.286;2022-07-01T05:28:58;14.10;;;7.97;;
52854;SDS011;38719;51.418;7.286;2022-07-01T05:31:25;12.98;;;7.15;;
52854;SDS011;38719;51.418;7.286;2022-07-01T05:33:54;13.13;;;6.32;;
52854;SDS011;38719;51.418;7.286;2022-07-01T05:36:29;9.48;;;6.70;;
52854;SDS011;38719;51.418;7.286;2022-07-01T05:38:56;10.70;;;6.40;;
52854;SDS011;38719;51.418;7.286;2022-07-01T05:41:24;11.98;;;5.82;;
52854;SDS011;38719;51.418;7.286;2022-07-01T05:43:52;13.23;;;6.32;;
52854;SDS011;38719;51.418;7.286;2022-07-01T05:46:19;14.48;;;5.97;;
52854;SDS011;38719;51.418;7.286;2022-07-01T05:48:47;10.52;;;6.20;;
52854;SDS011;38719;51.418;7.286;2022-07-01T05:51:16;9.82;;;6.18;;
52854;SDS011;38719;51.418;7.286;2022-07-01T05:53:44;9.68;;;6.97;;
52854;SDS011;38719;51.418;7.286;2022-07-01T05:56:13;7.55;;;6.07;;
52854;SDS011;38719;51.418;7.286;2022-07-01T05:58:41;12.77;;;7.03;;
52854;SDS011;38719;51.418;7.286;2022-07-01T06:01:09;16.63;;;7.15;;
52854;SDS011;38719;51.418;7.286;2022-07-01T06:03:36;11.02;;;6.05;;
52854;SDS011;38719;51.418;7.286;2022-07-01T06:06:04;10.20;;;6.10;;
52854;SDS011;38719;51.418;7.286;2022-07-01T06:08:33;8.63;;;5.88;;
52854;SDS011;38719;51.418;7.286;2022-07-01T06:11:01;13.32;;;5.93;;
52854;SDS011;38719;51.418;7.286;2022-07-01T06:13:29;9.02;;;6.07;;
52854;SDS011;38719;51.418;7.286;2022-07-01T06:15:57;11.45;;;6.18;;
52854;SDS011;38719;51.418;7.286;2022-07-01T06:18:25;12.65;;;5.90;;
52854;SDS011;38719;51.418;7.286;2022-07-01T06:20:53;11.82;;;6.00;;
52854;SDS011;38719;51.418;7.286;2022-07-01T06:23:20;9.00;;;5.68;;
52854;SDS011;38719;51.418;7.286;2022-07-01T06:25:50;9.18;;;5.43;;
52854;SDS011;38719;51.418;7.286;2022-07-01T06:28:17;9.70;;;5.20;;
52854;SDS011;38719;51.418;7.286;2022-07-01T06:30:45;9.10;;;5.70;;
52854;SDS011;38719;51.418;7.286;2022-07-01T06:33:12;9.05;;;5.65;;
52854;SDS011;38719;51.418;7.286;2022-07-01T06:35:40;7.40;;;5.35;;
52854;SDS011;38719;51.418;7.286;2022-07-01T06:38:08;9.23;;;5.40;;
52854;SDS011;38719;51.418;7.286;2022-07-01T06:40:36;11.35;;;5.15;;
52854;SDS011;38719;51.418;7.286;2022-07-01T06:43:04;10.02;;;5.43;;
52854;SDS011;38719;51.418;7.286;2022-07-01T06:45:32;9.30;;;5.40;;
52854;SDS011;38719;51.418;7.286;2022-07-01T06:48:00;11.38;;;5.57;;
52854;SDS011;38719;51.418;7.286;2022-07-01T06:50:29;9.07;;;5.22;;
52854;SDS011;38719;51.418;7.286;2022-07-01T06:52:56;7.78;;;5.13;;
52854;SDS011;38719;51.418;7.286;2022-07-01T06:55:24;8.38;;;4.97;;
52854;SDS011;38719;51.418;7.286;2022-07-01T06:57:52;8.07;;;5.05;;
52854;SDS011;38719;51.418;7.286;2022-07-01T07:00:21;10.40;;;5.43;;
52854;SDS011;38719;51.418;7.286;2022-07-01T07:02:48;11.55;;;5.72;;
52854;SDS011;38719;51.418;7.286;2022-07-01T07:05:16;10.13;;;5.25;;
52854;SDS011;38719;51.418;7.286;2022-07-01T07:07:44;10.15;;;5.43;;
52854;SDS011;38719;51.418;7.286;2022-07-01T07:10:11;6.78;;;4.75;;
52854;SDS011;38719;51.418;7.286;2022-07-01T07:12:39;10.32;;;5.43;;
52854;SDS011;38719;51.418;7.286;2022-07-01T07:15:07;10.48;;;5.75;;
52854;SDS011;38719;51.418;7.286;2022-07-01T07:17:36;8.90;;;5.25;;
52854;SDS011;38719;51.418;7.286;2022-07-01T07:20:04;10.07;;;5.53;;
52854;SDS011;38719;51.418;7.286;2022-07-01T07:22:33;12.23;;;5.82;;
52854;SDS011;38719;51.418;7.286;2022-07-01T07:25:00;12.32;;;5.75;;
52854;SDS011;38719;51.418;7.286;2022-07-01T07:27:28;9.63;;;5.50;;
52854;SDS011;38719;51.418;7.286;2022-07-01T07:30:00;9.43;;;5.20;;
52854;SDS011;38719;51.418;7.286;2022-07-01T07:32:29;15.98;;;5.85;;
52854;SDS011;38719;51.418;7.286;2022-07-01T07:34:58;11.85;;;5.75;;
52854;SDS011;38719;51.418;7.286;2022-07-01T07:37:25;9.27;;;5.47;;
52854;SDS011;38719;51.418;7.286;2022-07-01T07:39:53;8.38;;;4.35;;
52854;SDS011;38719;51.418;7.286;2022-07-01T07:42:20;8.18;;;4.93;;
52854;SDS011;38719;51.418;7.286;2022-07-01T07:44:48;8.25;;;4.93;;
52854;SDS011;38719;51.418;7.286;2022-07-01T07:47:15;7.35;;;4.38;;
52854;SDS011;38719;51.418;7.286;2022-07-01T07:49:43;7.07;;;4.40;;
52854;SDS011;38719;51.418;7.286;2022-07-01T07:52:12;13.63;;;5.07;;
52854;SDS011;38719;51.418;7.286;2022-07-01T07:54:39;9.82;;;4.88;;
52854;SDS011;38719;51.418;7.286;2022-07-01T07:57:07;12.02;;;4.72;;
52854;SDS011;38719;51.418;7.286;2022-07-01T07:59:35;7.97;;;3.88;;
52854;SDS011;38719;51.418;7.286;2022-07-01T08:02:03;8.23;;;4.05;;
52854;SDS011;38719;51.418;7.286;2022-07-01T08:04:31;7.60;;;4.60;;
52854;SDS011;38719;51.418;7.286;2022-07-01T08:06:58;6.00;;;4.75;;
52854;SDS011;38719;51.418;7.286;2022-07-01T08:09:27;13.30;;;4.05;;
52854;SDS011;38719;51.418;7.286;2022-07-01T08:11:55;7.25;;;5.00;;
52854;SDS011;38719;51.418;7.286;2022-07-01T08:14:22;7.05;;;3.97;;
52854;SDS011;38719;51.418;7.286;2022-07-01T08:16:50;9.85;;;3.95;;
52854;SDS011;38719;51.418;7.286;2022-07-01T08:19:18;7.10;;;4.25;;
52854;SDS011;38719;51.418;7.286;2022-07-01T08:21:45;10.10;;;3.90;;
52854;SDS011;38719;51.418;7.286;2022-07-01T08:24:13;8.10;;;3.72;;
52854;SDS011;38719;51.418;7.286;2022-07-01T08:26:42;8.30;;;3.95;;
52854;SDS011;38719;51.418;7.286;2022-07-01T08:29:10;4.63;;;3.60;;
52854;SDS011;38719;51.418;7.286;2022-07-01T08:31:38;5.40;;;3.47;;
52854;SDS011;38719;51.418;7.286;2022-07-01T08:34:05;5.00;;;3.50;;
52854;SDS011;38719;51.418;7.286;2022-07-01T08:36:35;7.65;;;3.47;;
52854;SDS011;38719;51.418;7.286;2022-07-01T08:39:03;13.88;;;3.90;;
52854;SDS011;38719;51.418;7.286;2022-07-01T08:41:30;6.70;;;3.88;;
52854;SDS011;38719;51.418;7.286;2022-07-01T08:43:59;4.80;;;3.50;;
52854;SDS011;38719;51.418;7.286;2022-07-01T08:46:27;5.00;;;3.40;;
52854;SDS011;38719;51.418;7.286;2022-07-01T08:48:55;6.45;;;3.50;;
52854;SDS011;38719;51.418;7.286;2022-07-01T08:51:22;7.90;;;3.80;;
52854;SDS011;38719;51.418;7.286;2022-07-01T08:53:50;5.85;;;3.53;;
52854;SDS011;38719;51.418;7.286;2022-07-01T08:56:18;7.13;;;3.50;;
52854;SDS011;38719;51.418;7.286;2022-07-01T08:59:23;5.28;;;3.22;;
52854;SDS011;38719;51.418;7.286;2022-07-01T09:01:55;6.50;;;3.22;;
52854;SDS011;38719;51.418;7.286;2022-07-01T09:04:24;10.65;;;3.45;;
52854;SDS011;38719;51.418;7.286;2022-07-01T09:06:57;10.00;;;3.38;;
52854;SDS011;38719;51.418;7.286;2022-07-01T09:09:28;5.22;;;3.25;;
52854;SDS011;38719;51.418;7.286;2022-07-01T09:12:01;3.75;;;3.05;;
52854;SDS011;38719;51.418;7.286;2022-07-01T09:14:31;5.32;;;3.17;;
52854;SDS011;38719;51.418;7.286;2022-07-01T09:17:01;6.38;;;3.25;;
52854;SDS011;38719;51.418;7.286;2022-07-01T09:19:32;4.70;;;2.92;;
52854;SDS011;38719;51.418;7.286;2022-07-01T09:22:02;4.22;;;2.88;;
52854;SDS011;38719;51.418;7.286;2022-07-01T09:24:32;8.40;;;3.53;;
52854;SDS011;38719;51.418;7.286;2022-07-01T09:27:02;7.20;;;3.22;;
52854;SDS011;38719;51.418;7.286;2022-07-01T09:29:38;6.43;;;3.15;;
52854;SDS011;38719;51.418;7.286;2022-07-01T09:32:08;6.30;;;3.53;;
52854;SDS011;38719;51.418;7.286;2022-07-01T09:34:40;7.25;;;3.13;;
52854;SDS011;38719;51.418;7.286;2022-07-01T09:37:10;6.50;;;3.55;;
52854;SDS011;38719;51.418;7.286;2022-07-01T09:39:42;4.35;;;2.88;;
52854;SDS011;38719;51.418;7.286;2022-07-01T09:42:11;6.30;;;3.20;;
52854;SDS011;38719;51.418;7.286;2022-07-01T09:44:54;8.25;;;3.20;;
52854;SDS011;38719;51.418;7.286;2022-07-01T09:47:29;6.47;;;3.25;;
52854;SDS011;38719;51.418;7.286;2022-07-01T09:49:57;4.90;;;2.75;;
52854;SDS011;38719;51.418;7.286;2022-07-01T09:52:26;5.05;;;2.60;;
52854;SDS011;38719;51.418;7.286;2022-07-01T09:55:02;4.32;;;3.10;;
52854;SDS011;38719;51.418;7.286;2022-07-01T09:57:30;5.97;;;2.88;;
52854;SDS011;38719;51.418;7.286;2022-07-01T09:59:59;3.63;;;2.67;;
52854;SDS011;38719;51.418;7.286;2022-07-01T10:02:27;4.15;;;2.97;;
52854;SDS011;38719;51.418;7.286;2022-07-01T10:04:58;3.90;;;2.63;;
52854;SDS011;38719;51.418;7.286;2022-07-01T10:07:33;5.95;;;2.72;;
52854;SDS011;38719;51.418;7.286;2022-07-01T10:10:13;4.60;;;2.88;;
52854;SDS011;38719;51.418;7.286;2022-07-01T10:12:50;4.20;;;2.70;;
52854;SDS011;38719;51.418;7.286;2022-07-01T10:15:21;5.50;;;2.72;;
52854;SDS011;38719;51.418;7.286;2022-07-01T10:17:50;6.32;;;2.80;;
52854;SDS011;38719;51.418;7.286;2022-07-01T10:20:22;5.78;;;2.83;;
52854;SDS011;38719;51.418;7.286;2022-07-01T10:22:59;2.97;;;2.45;;
52854;SDS011;38719;51.418;7.286;2022-07-01T10:25:31;5.05;;;2.72;;
52854;SDS011;38719;51.418;7.286;2022-07-01T10:30:58;5.65;;;2.90;;
52854;SDS011;38719;51.418;7.286;2022-07-01T10:33:32;3.38;;;2.50;;
52854;SDS011;38719;51.418;7.286;2022-07-01T10:36:08;3.92;;;2.60;;
52854;SDS011;38719;51.418;7.286;2022-07-01T10:42:00;3.35;;;2.20;;
52854;SDS011;38719;51.418;7.286;2022-07-01T10:47:39;4.28;;;2.35;;
52854;SDS011;38719;51.418;7.286;2022-07-01T10:50:09;4.95;;;2.30;;
52854;SDS011;38719;51.418;7.286;2022-07-01T10:52:40;2.97;;;1.85;;
52854;SDS011;38719;51.418;7.286;2022-07-01T10:55:35;5.50;;;2.20;;
52854;SDS011;38719;51.418;7.286;2022-07-01T10:58:03;7.53;;;2.40;;
52854;SDS011;38719;51.418;7.286;2022-07-01T11:00:32;4.43;;;2.17;;
52854;SDS011;38719;51.418;7.286;2022-07-01T11:03:10;4.47;;;2.28;;
52854;SDS011;38719;51.418;7.286;2022-07-01T11:05:43;5.72;;;2.30;;
52854;SDS011;38719;51.418;7.286;2022-07-01T11:08:12;2.80;;;2.00;;
52854;SDS011;38719;51.418;7.286;2022-07-01T11:10:49;6.38;;;2.05;;
52854;SDS011;38719;51.418;7.286;2022-07-01T11:13:18;4.20;;;1.95;;
52854;SDS011;38719;51.418;7.286;2022-07-01T11:15:46;3.47;;;1.70;;
52854;SDS011;38719;51.418;7.286;2022-07-01T11:18:16;2.88;;;1.75;;
52854;SDS011;38719;51.418;7.286;2022-07-01T11:20:45;3.80;;;1.55;;
52854;SDS011;38719;51.418;7.286;2022-07-01T11:23:13;2.55;;;1.50;;
52854;SDS011;38719;51.418;7.286;2022-07-01T11:25:43;2.38;;;1.63;;
52854;SDS011;38719;51.418;7.286;2022-07-01T11:28:11;2.15;;;1.50;;
52854;SDS011;38719;51.418;7.286;2022-07-01T11:30:39;4.68;;;1.80;;
52854;SDS011;38719;51.418;7.286;2022-07-01T11:33:07;2.35;;;1.40;;
52854;SDS011;38719;51.418;7.286;2022-07-01T11:35:36;3.47;;;1.70;;
52854;SDS011;38719;51.418;7.286;2022-07-01T11:38:22;1.73;;;1.38;;
52854;SDS011;38719;51.418;7.286;2022-07-01T11:41:10;6.63;;;1.80;;
52854;SDS011;38719;51.418;7.286;2022-07-01T11:43:45;3.50;;;1.70;;
52854;SDS011;38719;51.418;7.286;2022-07-01T11:46:13;4.18;;;1.77;;
52854;SDS011;38719;51.418;7.286;2022-07-01T11:48:41;2.00;;;1.50;;
52854;SDS011;38719;51.418;7.286;2022-07-01T11:51:12;3.65;;;1.63;;
52854;SDS011;38719;51.418;7.286;2022-07-01T11:53:41;1.80;;;1.50;;
52854;SDS011;38719;51.418;7.286;2022-07-01T11:56:10;4.78;;;1.33;;
52854;SDS011;38719;51.418;7.286;2022-07-01T11:58:46;6.07;;;1.50;;
52854;SDS011;38719;51.418;7.286;2022-07-01T12:01:23;1.88;;;1.40;;
52854;SDS011;38719;51.418;7.286;2022-07-01T12:03:55;2.42;;;1.52;;
52854;SDS011;38719;51.418;7.286;2022-07-01T12:06:25;3.72;;;1.60;;
52854;SDS011;38719;51.418;7.286;2022-07-01T12:08:54;2.65;;;1.60;;
52854;SDS011;38719;51.418;7.286;2022-07-01T12:11:23;3.53;;;1.65;;
52854;SDS011;38719;51.418;7.286;2022-07-01T12:13:52;1.80;;;1.40;;
52854;SDS011;38719;51.418;7.286;2022-07-01T12:16:22;3.08;;;1.77;;
52854;SDS011;38719;51.418;7.286;2022-07-01T12:18:52;4.07;;;1.80;;
52854;SDS011;38719;51.418;7.286;2022-07-01T12:21:21;4.57;;;2.00;;
52854;SDS011;38719;51.418;7.286;2022-07-01T12:24:08;3.42;;;2.00;;
52854;SDS011;38719;51.418;7.286;2022-07-01T12:26:50;3.72;;;1.80;;
52854;SDS011;38719;51.418;7.286;2022-07-01T12:29:21;3.80;;;1.90;;
52854;SDS011;38719;51.418;7.286;2022-07-01T12:31:56;3.47;;;1.65;;
52854;SDS011;38719;51.418;7.286;2022-07-01T12:37:15;4.07;;;1.83;;
52854;SDS011;38719;51.418;7.286;2022-07-01T12:39:47;3.63;;;1.75;;
52854;SDS011;38719;51.418;7.286;2022-07-01T12:42:19;2.42;;;1.85;;
52854;SDS011;38719;51.418;7.286;2022-07-01T12:44:51;3.08;;;1.67;;
52854;SDS011;38719;51.418;7.286;2022-07-01T12:47:20;1.80;;;1.60;;
52854;SDS011;38719;51.418;7.286;2022-07-01T12:49:48;3.22;;;1.73;;
52854;SDS011;38719;51.418;7.286;2022-07-01T12:52:22;2.20;;;1.60;;
52854;SDS011;38719;51.418;7.286;2022-07-01T12:54:52;2.42;;;1.73;;
52854;SDS011;38719;51.418;7.286;2022-07-01T12:57:29;3.70;;;1.73;;
52854;SDS011;38719;51.418;7.286;2022-07-01T13:00:04;4.75;;;1.30;;
52854;SDS011;38719;51.418;7.286;2022-07-01T13:02:32;3.65;;;1.50;;
52854;SDS011;38719;51.418;7.286;2022-07-01T13:05:00;2.17;;;1.33;;
52854;SDS011;38719;51.418;7.286;2022-07-01T13:07:28;5.28;;;1.90;;
52854;SDS011;38719;51.418;7.286;2022-07-01T13:09:57;3.05;;;1.52;;
52854;SDS011;38719;51.418;7.286;2022-07-01T13:12:24;3.00;;;1.60;;
52854;SDS011;38719;51.418;7.286;2022-07-01T13:14:52;8.40;;;1.90;;
52854;SDS011;38719;51.418;7.286;2022-07-01T13:17:20;2.80;;;1.60;;
52854;SDS011;38719;51.418;7.286;2022-07-01T13:19:48;4.53;;;1.65;;
52854;SDS011;38719;51.418;7.286;2022-07-01T13:22:16;2.05;;;1.45;;
52854;SDS011;38719;51.418;7.286;2022-07-01T13:24:44;2.72;;;1.70;;
52854;SDS011;38719;51.418;7.286;2022-07-01T13:27:16;4.78;;;1.58;;
52854;SDS011;38719;51.418;7.286;2022-07-01T13:29:44;2.83;;;1.67;;
52854;SDS011;38719;51.418;7.286;2022-07-01T13:32:11;4.35;;;1.50;;
52854;SDS011;38719;51.418;7.286;2022-07-01T13:34:39;1.92;;;1.35;;
52854;SDS011;38719;51.418;7.286;2022-07-01T13:37:11;5.40;;;1.50;;
52854;SDS011;38719;51.418;7.286;2022-07-01T13:39:40;2.22;;;1.15;;
52854;SDS011;38719;51.418;7.286;2022-07-01T13:42:08;1.38;;;1.27;;
52854;SDS011;38719;51.418;7.286;2022-07-01T13:44:37;4.10;;;1.50;;
52854;SDS011;38719;51.418;7.286;2022-07-01T13:47:05;1.25;;;1.13;;
52854;SDS011;38719;51.418;7.286;2022-07-01T13:49:35;5.55;;;1.67;;
52854;SDS011;38719;51.418;7.286;2022-07-01T13:52:04;3.75;;;1.50;;
52854;SDS011;38719;51.418;7.286;2022-07-01T13:54:32;3.35;;;1.50;;
52854;SDS011;38719;51.418;7.286;2022-07-01T13:56:59;3.40;;;1.75;;
52854;SDS011;38719;51.418;7.286;2022-07-01T13:59:27;3.00;;;1.50;;
52854;SDS011;38719;51.418;7.286;2022-07-01T14:01:56;2.88;;;1.48;;
52854;SDS011;38719;51.418;7.286;2022-07-01T14:04:24;3.08;;;1.30;;
52854;SDS011;38719;51.418;7.286;2022-07-01T14:06:52;4.90;;;1.67;;
52854;SDS011;38719;51.418;7.286;2022-07-01T14:09:20;4.32;;;1.40;;
52854;SDS011;38719;51.418;7.286;2022-07-01T14:11:47;9.10;;;1.58;;
52854;SDS011;38719;51.418;7.286;2022-07-01T14:14:15;5.78;;;1.42;;
52854;SDS011;38719;51.418;7.286;2022-07-01T14:16:42;1.67;;;1.17;;
52854;SDS011;38719;51.418;7.286;2022-07-01T14:19:11;4.30;;;1.02;;
52854;SDS011;38719;51.418;7.286;2022-07-01T14:21:39;2.40;;;1.40;;
52854;SDS011;38719;51.418;7.286;2022-07-01T14:24:07;3.65;;;1.40;;
52854;SDS011;38719;51.418;7.286;2022-07-01T14:26:35;2.53;;;1.40;;
52854;SDS011;38719;51.418;7.286;2022-07-01T14:29:02;3.33;;;1.27;;
52854;SDS011;38719;51.418;7.286;2022-07-01T14:31:30;3.10;;;1.27;;
52854;SDS011;38719;51.418;7.286;2022-07-01T14:33:57;2.65;;;1.33;;
52854;SDS011;38719;51.418;7.286;2022-07-01T14:36:26;1.70;;;1.02;;
52854;SDS011;38719;51.418;7.286;2022-07-01T14:38:54;2.35;;;1.15;;
52854;SDS011;38719;51.418;7.286;2022-07-01T14:41:21;2.65;;;1.38;;
52854;SDS011;38719;51.418;7.286;2022-07-01T14:43:49;3.47;;;1.30;;
52854;SDS011;38719;51.418;7.286;2022-07-01T14:46:17;2.38;;;1.58;;
52854;SDS011;38719;51.418;7.286;2022-07-01T14:48:45;4.38;;;1.52;;
52854;SDS011;38719;51.418;7.286;2022-07-01T14:51:12;2.22;;;1.30;;
52854;SDS011;38719;51.418;7.286;2022-07-01T14:53:41;4.32;;;1.38;;
52854;SDS011;38719;51.418;7.286;2022-07-01T14:56:11;2.78;;;1.23;;
52854;SDS011;38719;51.418;7.286;2022-07-01T14:58:38;2.13;;;1.30;;
52854;SDS011;38719;51.418;7.286;2022-07-01T15:01:08;3.83;;;1.35;;
52854;SDS011;38719;51.418;7.286;2022-07-01T15:03:36;2.08;;;1.17;;
52854;SDS011;38719;51.418;7.286;2022-07-01T15:06:04;1.77;;;1.20;;